sensor_id;sensor_type;location;lat;lon;timestamp;P1;durP1;ratioP1;P2;durP2;ratioP2
15557;SDS011;7880;50.110;9.372;2024-02-26T00:04:06;2.169230769230769;;;1.3692307692307695;;
15557;SDS011;7880;50.110;9.372;2024-02-26T00:09:19;2.1999999999999997;;;1.3000000000000003;;
15557;SDS011;7880;50.110;9.372;2024-02-26T00:14:22;1.6999999999999995;;;1.5;;
15557;SDS011;7880;50.110;9.372;2024-02-26T00:19:29;2.330769230769231;;;1.6999999999999995;;
15557;SDS011;7880;50.110;9.372;2024-02-26T00:24:39;3.0384615384615383;;;1.8000000000000005;;
15557;SDS011;7880;50.110;9.372;2024-02-26T00:29:43;2.1999999999999997;;;1.6999999999999995;;
15557;SDS011;7880;50.110;9.372;2024-02-26T00:34:51;4.338461538461538;;;1.8000000000000005;;
15557;SDS011;7880;50.110;9.372;2024-02-26T00:39:58;2.630769230769231;;;2.0;;
15557;SDS011;7880;50.110;9.372;2024-02-26T00:45:07;1.9307692307692308;;;1.6;;
15557;SDS011;7880;50.110;9.372;2024-02-26T00:50:12;2.369230769230769;;;1.8000000000000005;;
15557;SDS011;7880;50.110;9.372;2024-02-26T00:55:20;3.2692307692307705;;;1.6999999999999995;;
15557;SDS011;7880;50.110;9.372;2024-02-26T01:00:35;4.6000000000000005;;;1.8000000000000005;;
15557;SDS011;7880;50.110;9.372;2024-02-26T01:05:38;1.6999999999999995;;;1.4;;
15557;SDS011;7880;50.110;9.372;2024-02-26T01:10:41;3.2999999999999994;;;2.1999999999999997;;
15557;SDS011;7880;50.110;9.372;2024-02-26T01:15:48;3.530769230769231;;;1.4615384615384621;;
15557;SDS011;7880;50.110;9.372;2024-02-26T01:20:56;2.1230769230769226;;;1.5615384615384613;;
15557;SDS011;7880;50.110;9.372;2024-02-26T01:26:03;2.238461538461538;;;1.8000000000000005;;
15557;SDS011;7880;50.110;9.372;2024-02-26T01:31:09;2.1000000000000005;;;1.4;;
15557;SDS011;7880;50.110;9.372;2024-02-26T01:36:16;2.3999999999999995;;;1.8000000000000005;;
15557;SDS011;7880;50.110;9.372;2024-02-26T01:41:24;3.869230769230768;;;1.6999999999999995;;
15557;SDS011;7880;50.110;9.372;2024-02-26T01:46:31;2.899999999999999;;;2.0;;
15557;SDS011;7880;50.110;9.372;2024-02-26T01:51:38;4.269230769230769;;;2.169230769230769;;
15557;SDS011;7880;50.110;9.372;2024-02-26T01:56:44;2.1307692307692307;;;1.5;;
15557;SDS011;7880;50.110;9.372;2024-02-26T02:01:55;2.7307692307692295;;;1.8307692307692305;;
15557;SDS011;7880;50.110;9.372;2024-02-26T02:07:00;3.130769230769232;;;1.6;;
15557;SDS011;7880;50.110;9.372;2024-02-26T02:12:11;1.3692307692307695;;;1.2692307692307692;;
15557;SDS011;7880;50.110;9.372;2024-02-26T02:17:20;2.1692307692307686;;;1.6692307692307686;;
15557;SDS011;7880;50.110;9.372;2024-02-26T02:21:25;4.638461538461538;;;1.8000000000000005;;
15557;SDS011;7880;50.110;9.372;2024-02-26T02:26:33;2.469230769230769;;;1.6999999999999995;;
15557;SDS011;7880;50.110;9.372;2024-02-26T02:31:41;2.1999999999999997;;;1.9307692307692308;;
15557;SDS011;7880;50.110;9.372;2024-02-26T02:36:48;3.6692307692307695;;;1.5;;
15557;SDS011;7880;50.110;9.372;2024-02-26T02:41:53;3.169230769230769;;;1.8999999999999997;;
15557;SDS011;7880;50.110;9.372;2024-02-26T02:47:01;6.976923076923078;;;2.0384615384615383;;
15557;SDS011;7880;50.110;9.372;2024-02-26T02:52:20;3.738461538461539;;;1.8692307692307695;;
15557;SDS011;7880;50.110;9.372;2024-02-26T02:57:18;2.261538461538461;;;1.530769230769231;;
15557;SDS011;7880;50.110;9.372;2024-02-26T03:02:25;1.7692307692307692;;;1.2692307692307692;;
15557;SDS011;7880;50.110;9.372;2024-02-26T03:07:44;3.0;;;1.6999999999999995;;
15557;SDS011;7880;50.110;9.372;2024-02-26T03:12:39;3.3307692307692305;;;1.6307692307692305;;
15557;SDS011;7880;50.110;9.372;2024-02-26T03:17:42;2.3000000000000003;;;1.6999999999999995;;
15557;SDS011;7880;50.110;9.372;2024-02-26T03:22:52;2.169230769230769;;;1.3000000000000003;;
15557;SDS011;7880;50.110;9.372;2024-02-26T03:27:57;1.723076923076923;;;1.2615384615384615;;
15557;SDS011;7880;50.110;9.372;2024-02-26T03:33:04;2.5461538461538455;;;1.0999999999999999;;
15557;SDS011;7880;50.110;9.372;2024-02-26T03:38:11;2.292307692307692;;;1.3615384615384616;;
15557;SDS011;7880;50.110;9.372;2024-02-26T03:43:18;1.5;;;1.0307692307692307;;
15557;SDS011;7880;50.110;9.372;2024-02-26T03:48:26;2.1307692307692307;;;1.3000000000000003;;
15557;SDS011;7880;50.110;9.372;2024-02-26T03:53:37;1.9307692307692308;;;1.3000000000000003;;
15557;SDS011;7880;50.110;9.372;2024-02-26T03:58:40;3.56923076923077;;;2.0;;
15557;SDS011;7880;50.110;9.372;2024-02-26T04:03:47;2.0;;;1.530769230769231;;
15557;SDS011;7880;50.110;9.372;2024-02-26T04:08:54;2.5;;;1.0307692307692307;;
15557;SDS011;7880;50.110;9.372;2024-02-26T04:14:03;2.469230769230769;;;1.330769230769231;;
15557;SDS011;7880;50.110;9.372;2024-02-26T04:19:16;3.6307692307692316;;;1.5;;
15557;SDS011;7880;50.110;9.372;2024-02-26T04:24:16;2.430769230769231;;;1.1923076923076918;;
15557;SDS011;7880;50.110;9.372;2024-02-26T04:29:23;3.06923076923077;;;1.3692307692307695;;
15557;SDS011;7880;50.110;9.372;2024-02-26T04:34:31;1.8615384615384618;;;1.1999999999999997;;
15557;SDS011;7880;50.110;9.372;2024-02-26T04:39:42;2.169230769230769;;;1.4;;
15557;SDS011;7880;50.110;9.372;2024-02-26T04:44:54;3.261538461538461;;;1.0999999999999999;;
15557;SDS011;7880;50.110;9.372;2024-02-26T04:49:50;2.553846153846154;;;1.2615384615384615;;
15557;SDS011;7880;50.110;9.372;2024-02-26T04:55:03;1.4;;;1.1384615384615382;;
15557;SDS011;7880;50.110;9.372;2024-02-26T05:00:05;3.169230769230769;;;1.1999999999999997;;
15557;SDS011;7880;50.110;9.372;2024-02-26T05:05:12;1.3000000000000003;;;1.1999999999999997;;
15557;SDS011;7880;50.110;9.372;2024-02-26T05:10:21;3.869230769230768;;;1.8000000000000005;;
15557;SDS011;7880;50.110;9.372;2024-02-26T05:15:24;3.2;;;1.6999999999999995;;
15557;SDS011;7880;50.110;9.372;2024-02-26T05:20:35;3.2538461538461547;;;2.030769230769231;;
15557;SDS011;7880;50.110;9.372;2024-02-26T05:25:40;2.569230769230769;;;1.6307692307692305;;
15557;SDS011;7880;50.110;9.372;2024-02-26T05:30:48;3.061538461538462;;;2.0;;
15557;SDS011;7880;50.110;9.372;2024-02-26T05:36:04;4.561538461538462;;;3.3307692307692305;;
15557;SDS011;7880;50.110;9.372;2024-02-26T05:40:59;3.2;;;2.0;;
15557;SDS011;7880;50.110;9.372;2024-02-26T05:46:16;4.838461538461538;;;2.169230769230769;;
15557;SDS011;7880;50.110;9.372;2024-02-26T05:51:17;5.092307692307693;;;2.0;;
15557;SDS011;7880;50.110;9.372;2024-02-26T05:56:21;4.700000000000001;;;2.7;;
15557;SDS011;7880;50.110;9.372;2024-02-26T06:01:36;4.861538461538462;;;2.0615384615384613;;
15557;SDS011;7880;50.110;9.372;2024-02-26T06:06:46;3.5;;;2.0;;
15557;SDS011;7880;50.110;9.372;2024-02-26T06:11:51;3.2999999999999994;;;2.0;;
15557;SDS011;7880;50.110;9.372;2024-02-26T06:17:03;4.469230769230769;;;2.0;;
15557;SDS011;7880;50.110;9.372;2024-02-26T06:22:04;3.2999999999999994;;;1.8999999999999997;;
15557;SDS011;7880;50.110;9.372;2024-02-26T06:27:12;5.369230769230768;;;1.7307692307692308;;
15557;SDS011;7880;50.110;9.372;2024-02-26T06:32:19;5.238461538461538;;;2.6000000000000005;;
15557;SDS011;7880;50.110;9.372;2024-02-26T06:37:36;6.669230769230769;;;3.130769230769232;;
15557;SDS011;7880;50.110;9.372;2024-02-26T06:42:35;5.06923076923077;;;2.830769230769231;;
15557;SDS011;7880;50.110;9.372;2024-02-26T06:47:45;4.661538461538462;;;3.030769230769231;;
15557;SDS011;7880;50.110;9.372;2024-02-26T06:52:47;4.638461538461538;;;2.569230769230769;;
15557;SDS011;7880;50.110;9.372;2024-02-26T06:57:54;3.015384615384616;;;1.6538461538461533;;
15557;SDS011;7880;50.110;9.372;2024-02-26T07:03:00;5.738461538461538;;;2.030769230769231;;
15557;SDS011;7880;50.110;9.372;2024-02-26T07:08:08;3.06923076923077;;;2.1999999999999997;;
15557;SDS011;7880;50.110;9.372;2024-02-26T07:13:16;3.7999999999999994;;;2.1000000000000005;;
15557;SDS011;7880;50.110;9.372;2024-02-26T07:18:25;7.407692307692309;;;2.430769230769231;;
15557;SDS011;7880;50.110;9.372;2024-02-26T07:23:29;5.538461538461541;;;2.269230769230769;;
15557;SDS011;7880;50.110;9.372;2024-02-26T07:27:48;4.6692307692307695;;;2.3999999999999995;;
15557;SDS011;7880;50.110;9.372;2024-02-26T07:32:51;3.7692307692307705;;;1.8999999999999997;;
15557;SDS011;7880;50.110;9.372;2024-02-26T07:37:55;7.023076923076924;;;2.330769230769231;;
15557;SDS011;7880;50.110;9.372;2024-02-26T07:43:02;5.023076923076922;;;2.630769230769231;;
15557;SDS011;7880;50.110;9.372;2024-02-26T07:48:08;6.669230769230769;;;3.100000000000001;;
15557;SDS011;7880;50.110;9.372;2024-02-26T07:53:16;5.269230769230769;;;2.899999999999999;;
15557;SDS011;7880;50.110;9.372;2024-02-26T07:58:21;4.6692307692307695;;;2.8692307692307684;;
15557;SDS011;7880;50.110;9.372;2024-02-26T08:03:29;4.376923076923077;;;2.5769230769230775;;
15557;SDS011;7880;50.110;9.372;2024-02-26T08:08:36;4.961538461538461;;;2.8;;
15557;SDS011;7880;50.110;9.372;2024-02-26T08:13:43;5.207692307692308;;;2.7692307692307705;;
15557;SDS011;7880;50.110;9.372;2024-02-26T08:18:50;6.676923076923078;;;3.338461538461539;;
15557;SDS011;7880;50.110;9.372;2024-02-26T08:23:59;5.369230769230768;;;2.899999999999999;;
15557;SDS011;7880;50.110;9.372;2024-02-26T08:29:11;4.8999999999999995;;;3.399999999999999;;
15557;SDS011;7880;50.110;9.372;2024-02-26T08:34:13;6.238461538461536;;;3.56923076923077;;
15557;SDS011;7880;50.110;9.372;2024-02-26T08:39:20;4.884615384615385;;;3.292307692307692;;
15557;SDS011;7880;50.110;9.372;2024-02-26T08:44:25;4.923076923076923;;;3.100000000000001;;
15557;SDS011;7880;50.110;9.372;2024-02-26T08:49:32;4.33076923076923;;;3.0;;
15557;SDS011;7880;50.110;9.372;2024-02-26T08:54:41;5.607692307692309;;;3.469230769230769;;
15557;SDS011;7880;50.110;9.372;2024-02-26T08:59:44;7.830769230769231;;;3.7000000000000006;;
15557;SDS011;7880;50.110;9.372;2024-02-26T09:04:55;5.438461538461539;;;2.9615384615384617;;
15557;SDS011;7880;50.110;9.372;2024-02-26T09:09:58;4.461538461538462;;;3.100000000000001;;
15557;SDS011;7880;50.110;9.372;2024-02-26T09:15:06;6.1;;;3.600000000000001;;
15557;SDS011;7880;50.110;9.372;2024-02-26T09:20:20;7.992307692307692;;;3.969230769230769;;
15557;SDS011;7880;50.110;9.372;2024-02-26T09:25:21;6.799999999999998;;;3.3307692307692305;;
15557;SDS011;7880;50.110;9.372;2024-02-26T09:30:26;8.015384615384617;;;3.2;;
15557;SDS011;7880;50.110;9.372;2024-02-26T09:35:34;7.200000000000002;;;4.1000000000000005;;
15557;SDS011;7880;50.110;9.372;2024-02-26T09:40:42;6.06923076923077;;;3.899999999999999;;
15557;SDS011;7880;50.110;9.372;2024-02-26T09:45:54;8.007692307692306;;;4.16923076923077;;
15557;SDS011;7880;50.110;9.372;2024-02-26T09:50:56;10.307692307692308;;;4.700000000000001;;
15557;SDS011;7880;50.110;9.372;2024-02-26T09:56:05;9.738461538461538;;;4.769230769230769;;
15557;SDS011;7880;50.110;9.372;2024-02-26T10:01:10;8.692307692307692;;;4.799999999999999;;
15557;SDS011;7880;50.110;9.372;2024-02-26T10:06:27;8.169230769230769;;;4.299999999999999;;
15557;SDS011;7880;50.110;9.372;2024-02-26T10:11:34;8.476923076923077;;;5.06923076923077;;
15557;SDS011;7880;50.110;9.372;2024-02-26T10:16:41;9.838461538461539;;;4.361538461538462;;
15557;SDS011;7880;50.110;9.372;2024-02-26T10:21:48;7.161538461538461;;;4.530769230769231;;
15557;SDS011;7880;50.110;9.372;2024-02-26T10:26:55;7.723076923076923;;;4.361538461538462;;
15557;SDS011;7880;50.110;9.372;2024-02-26T10:32:01;5.792307692307693;;;3.492307692307693;;
15557;SDS011;7880;50.110;9.372;2024-02-26T10:37:16;7.061538461538463;;;5.153846153846155;;
15557;SDS011;7880;50.110;9.372;2024-02-26T10:42:18;9.038461538461538;;;5.1000000000000005;;
15557;SDS011;7880;50.110;9.372;2024-02-26T10:47:33;8.299999999999999;;;5.8307692307692305;;
15557;SDS011;7880;50.110;9.372;2024-02-26T10:52:33;6.830769230769231;;;4.23076923076923;;
15557;SDS011;7880;50.110;9.372;2024-02-26T10:57:39;6.330769230769231;;;4.2615384615384615;;
15557;SDS011;7880;50.110;9.372;2024-02-26T11:02:45;5.6692307692307695;;;4.1000000000000005;;
15557;SDS011;7880;50.110;9.372;2024-02-26T11:07:53;7.56923076923077;;;4.0;;
15557;SDS011;7880;50.110;9.372;2024-02-26T11:12:57;6.16153846153846;;;3.7538461538461525;;
15557;SDS011;7880;50.110;9.372;2024-02-26T11:18:07;7.238461538461536;;;3.7999999999999994;;
15557;SDS011;7880;50.110;9.372;2024-02-26T11:23:12;16.353846153846153;;;8.976923076923075;;
15557;SDS011;7880;50.110;9.372;2024-02-26T11:28:19;7.43076923076923;;;3.8615384615384616;;
15557;SDS011;7880;50.110;9.372;2024-02-26T11:33:25;5.6692307692307695;;;3.7999999999999994;;
15557;SDS011;7880;50.110;9.372;2024-02-26T11:38:34;7.06923076923077;;;4.1000000000000005;;
15557;SDS011;7880;50.110;9.372;2024-02-26T11:43:57;8.63076923076923;;;4.061538461538462;;
15557;SDS011;7880;50.110;9.372;2024-02-26T11:48:47;10.076923076923078;;;5.269230769230769;;
15557;SDS011;7880;50.110;9.372;2024-02-26T11:53:56;6.130769230769232;;;3.130769230769232;;
15557;SDS011;7880;50.110;9.372;2024-02-26T11:59:02;4.730769230769231;;;3.630769230769232;;
15557;SDS011;7880;50.110;9.372;2024-02-26T12:04:11;6.415384615384618;;;3.43076923076923;;
15557;SDS011;7880;50.110;9.372;2024-02-26T12:09:30;6.238461538461536;;;3.399999999999999;;
15557;SDS011;7880;50.110;9.372;2024-02-26T12:14:25;5.561538461538462;;;3.399999999999999;;
15557;SDS011;7880;50.110;9.372;2024-02-26T12:19:29;5.53076923076923;;;3.2999999999999994;;
15557;SDS011;7880;50.110;9.372;2024-02-26T12:24:41;6.938461538461538;;;2.899999999999999;;
15557;SDS011;7880;50.110;9.372;2024-02-26T12:29:43;6.661538461538461;;;3.899999999999999;;
15557;SDS011;7880;50.110;9.372;2024-02-26T12:33:52;4.346153846153846;;;3.246153846153845;;
15557;SDS011;7880;50.110;9.372;2024-02-26T12:39:06;5.838461538461538;;;3.5;;
15557;SDS011;7880;50.110;9.372;2024-02-26T12:44:08;4.638461538461538;;;3.169230769230769;;
15557;SDS011;7880;50.110;9.372;2024-02-26T12:49:16;4.338461538461538;;;2.8;;
15557;SDS011;7880;50.110;9.372;2024-02-26T12:54:24;3.969230769230769;;;2.8;;
15557;SDS011;7880;50.110;9.372;2024-02-26T12:59:32;4.507692307692308;;;3.06923076923077;;
15557;SDS011;7880;50.110;9.372;2024-02-26T13:04:39;3.6692307692307695;;;2.669230769230769;;
15557;SDS011;7880;50.110;9.372;2024-02-26T13:09:46;5.038461538461539;;;2.669230769230769;;
15557;SDS011;7880;50.110;9.372;2024-02-26T13:14:59;5.738461538461537;;;3.7692307692307705;;
15557;SDS011;7880;50.110;9.372;2024-02-26T13:19:59;4.83076923076923;;;3.0;;
15557;SDS011;7880;50.110;9.372;2024-02-26T13:25:14;3.561538461538462;;;3.030769230769231;;
15557;SDS011;7880;50.110;9.372;2024-02-26T13:30:12;3.530769230769231;;;2.230769230769231;;
15557;SDS011;7880;50.110;9.372;2024-02-26T13:35:19;3.1384615384615384;;;2.369230769230769;;
15557;SDS011;7880;50.110;9.372;2024-02-26T13:40:26;4.06923076923077;;;2.430769230769231;;
15557;SDS011;7880;50.110;9.372;2024-02-26T13:45:35;3.5538461538461545;;;2.5;;
15557;SDS011;7880;50.110;9.372;2024-02-26T13:50:40;5.1692307692307695;;;2.1307692307692307;;
15557;SDS011;7880;50.110;9.372;2024-02-26T13:55:47;3.761538461538461;;;2.4615384615384617;;
15557;SDS011;7880;50.110;9.372;2024-02-26T14:01:03;2.8;;;1.8000000000000005;;
15557;SDS011;7880;50.110;9.372;2024-02-26T14:06:02;3.100000000000001;;;2.3000000000000003;;
15557;SDS011;7880;50.110;9.372;2024-02-26T14:11:10;4.269230769230769;;;2.8;;
15557;SDS011;7880;50.110;9.372;2024-02-26T14:16:20;2.9230769230769242;;;2.230769230769231;;
15557;SDS011;7880;50.110;9.372;2024-02-26T14:21:25;2.430769230769231;;;1.8307692307692305;;
15557;SDS011;7880;50.110;9.372;2024-02-26T14:26:35;5.238461538461538;;;2.569230769230769;;
15557;SDS011;7880;50.110;9.372;2024-02-26T14:31:39;5.1923076923076925;;;2.1999999999999997;;
15557;SDS011;7880;50.110;9.372;2024-02-26T14:36:51;2.469230769230769;;;2.269230769230769;;
15557;SDS011;7880;50.110;9.372;2024-02-26T14:41:58;3.93076923076923;;;2.3999999999999995;;
15557;SDS011;7880;50.110;9.372;2024-02-26T14:47:02;2.3538461538461535;;;1.4307692307692308;;
15557;SDS011;7880;50.110;9.372;2024-02-26T14:52:07;3.261538461538461;;;2.230769230769231;;
15557;SDS011;7880;50.110;9.372;2024-02-26T14:57:14;3.06923076923077;;;1.8000000000000005;;
15557;SDS011;7880;50.110;9.372;2024-02-26T15:02:26;2.7692307692307705;;;2.0;;
15557;SDS011;7880;50.110;9.372;2024-02-26T15:07:27;2.1307692307692307;;;1.5;;
15557;SDS011;7880;50.110;9.372;2024-02-26T15:12:33;4.107692307692307;;;2.1000000000000005;;
15557;SDS011;7880;50.110;9.372;2024-02-26T15:17:41;4.869230769230769;;;2.3000000000000003;;
15557;SDS011;7880;50.110;9.372;2024-02-26T15:22:48;4.638461538461538;;;3.2;;
15557;SDS011;7880;50.110;9.372;2024-02-26T15:27:55;2.9230769230769242;;;1.9615384615384621;;
15557;SDS011;7880;50.110;9.372;2024-02-26T15:33:01;5.107692307692308;;;2.669230769230769;;
15557;SDS011;7880;50.110;9.372;2024-02-26T15:38:08;2.030769230769231;;;1.7307692307692308;;
15557;SDS011;7880;50.110;9.372;2024-02-26T15:43:23;4.769230769230769;;;2.0692307692307694;;
15557;SDS011;7880;50.110;9.372;2024-02-26T15:48:23;8.23076923076923;;;2.230769230769231;;
15557;SDS011;7880;50.110;9.372;2024-02-26T15:53:28;2.792307692307692;;;1.9307692307692308;;
15557;SDS011;7880;50.110;9.372;2024-02-26T15:58:43;2.3999999999999995;;;1.6;;
15557;SDS011;7880;50.110;9.372;2024-02-26T16:03:56;2.6000000000000005;;;2.030769230769231;;
15557;SDS011;7880;50.110;9.372;2024-02-26T16:08:49;2.261538461538461;;;2.0;;
15557;SDS011;7880;50.110;9.372;2024-02-26T16:13:59;3.369230769230768;;;1.8000000000000005;;
15557;SDS011;7880;50.110;9.372;2024-02-26T16:19:05;2.899999999999999;;;1.9307692307692308;;
15557;SDS011;7880;50.110;9.372;2024-02-26T16:24:18;4.338461538461538;;;2.1999999999999997;;
15557;SDS011;7880;50.110;9.372;2024-02-26T16:29:17;3.369230769230768;;;2.230769230769231;;
15557;SDS011;7880;50.110;9.372;2024-02-26T16:34:24;3.399999999999999;;;2.1000000000000005;;
15557;SDS011;7880;50.110;9.372;2024-02-26T16:39:31;4.538461538461538;;;2.5;;
15557;SDS011;7880;50.110;9.372;2024-02-26T16:44:38;4.138461538461539;;;2.3999999999999995;;
15557;SDS011;7880;50.110;9.372;2024-02-26T16:49:46;3.2999999999999994;;;2.3000000000000003;;
15557;SDS011;7880;50.110;9.372;2024-02-26T16:54:55;4.16923076923077;;;2.569230769230769;;
15557;SDS011;7880;50.110;9.372;2024-02-26T17:00:02;4.638461538461538;;;2.938461538461538;;
15557;SDS011;7880;50.110;9.372;2024-02-26T17:05:10;6.661538461538461;;;4.5;;
15557;SDS011;7880;50.110;9.372;2024-02-26T17:10:15;4.8999999999999995;;;4.3999999999999995;;
15557;SDS011;7880;50.110;9.372;2024-02-26T17:15:22;4.5;;;3.2;;
15557;SDS011;7880;50.110;9.372;2024-02-26T17:20:30;5.03076923076923;;;3.7307692307692295;;
15557;SDS011;7880;50.110;9.372;2024-02-26T17:25:39;5.607692307692309;;;3.7692307692307705;;
15557;SDS011;7880;50.110;9.372;2024-02-26T17:30:52;7.869230769230768;;;4.430769230769231;;
15557;SDS011;7880;50.110;9.372;2024-02-26T17:35:52;8.323076923076922;;;5.8307692307692305;;
15557;SDS011;7880;50.110;9.372;2024-02-26T17:40:07;5.1692307692307695;;;4.16923076923077;;
15557;SDS011;7880;50.110;9.372;2024-02-26T17:45:13;6.592307692307691;;;5.43076923076923;;
15557;SDS011;7880;50.110;9.372;2024-02-26T17:50:23;5.6692307692307695;;;4.16923076923077;;
15557;SDS011;7880;50.110;9.372;2024-02-26T17:55:23;3.7692307692307705;;;3.100000000000001;;
15557;SDS011;7880;50.110;9.372;2024-02-26T18:00:32;5.53076923076923;;;3.93076923076923;;
15557;SDS011;7880;50.110;9.372;2024-02-26T18:05:42;6.938461538461538;;;4.6000000000000005;;
15557;SDS011;7880;50.110;9.372;2024-02-26T18:10:47;4.93076923076923;;;3.600000000000001;;
15557;SDS011;7880;50.110;9.372;2024-02-26T18:15:52;7.507692307692308;;;3.2;;
15557;SDS011;7880;50.110;9.372;2024-02-26T18:20:58;38.86923076923077;;;14.89230769230769;;
15557;SDS011;7880;50.110;9.372;2024-02-26T18:26:05;15.907692307692304;;;7.799999999999998;;
15557;SDS011;7880;50.110;9.372;2024-02-26T18:31:13;11.953846153846154;;;6.761538461538464;;
15557;SDS011;7880;50.110;9.372;2024-02-26T18:36:46;8.469230769230771;;;4.730769230769231;;
15557;SDS011;7880;50.110;9.372;2024-02-26T18:41:27;4.569230769230769;;;2.969230769230769;;
15557;SDS011;7880;50.110;9.372;2024-02-26T18:46:44;7.176923076923078;;;3.100000000000001;;
15557;SDS011;7880;50.110;9.372;2024-02-26T18:51:43;3.946153846153846;;;2.946153846153846;;
15557;SDS011;7880;50.110;9.372;2024-02-26T18:56:50;6.5;;;2.8615384615384616;;
15557;SDS011;7880;50.110;9.372;2024-02-26T19:01:59;5.915384615384617;;;2.8;;
15557;SDS011;7880;50.110;9.372;2024-02-26T19:07:03;3.93076923076923;;;2.3000000000000003;;
15557;SDS011;7880;50.110;9.372;2024-02-26T19:12:12;3.6692307692307695;;;2.7307692307692295;;
15557;SDS011;7880;50.110;9.372;2024-02-26T19:17:17;3.93076923076923;;;2.899999999999999;;
15557;SDS011;7880;50.110;9.372;2024-02-26T19:22:22;5.661538461538462;;;3.3307692307692305;;
15557;SDS011;7880;50.110;9.372;2024-02-26T19:27:29;5.9;;;3.030769230769231;;
15557;SDS011;7880;50.110;9.372;2024-02-26T19:32:38;6.130769230769232;;;3.130769230769232;;
15557;SDS011;7880;50.110;9.372;2024-02-26T19:37:42;4.0307692307692315;;;2.93076923076923;;
15557;SDS011;7880;50.110;9.372;2024-02-26T19:42:53;4.938461538461538;;;2.8;;
15557;SDS011;7880;50.110;9.372;2024-02-26T19:47:59;3.2;;;2.1999999999999997;;
15557;SDS011;7880;50.110;9.372;2024-02-26T19:53:13;3.2;;;2.430769230769231;;
15557;SDS011;7880;50.110;9.372;2024-02-26T19:58:10;3.661538461538461;;;2.530769230769231;;
15557;SDS011;7880;50.110;9.372;2024-02-26T20:03:20;3.0846153846153843;;;2.1000000000000005;;
15557;SDS011;7880;50.110;9.372;2024-02-26T20:08:25;7.138461538461537;;;2.7;;
15557;SDS011;7880;50.110;9.372;2024-02-26T20:13:37;7.038461538461541;;;3.7692307692307705;;
15557;SDS011;7880;50.110;9.372;2024-02-26T20:18:39;6.969230769230771;;;3.899999999999999;;
15557;SDS011;7880;50.110;9.372;2024-02-26T20:23:47;5.630769230769232;;;3.530769230769231;;
15557;SDS011;7880;50.110;9.372;2024-02-26T20:29:00;4.6692307692307695;;;3.2999999999999994;;
15557;SDS011;7880;50.110;9.372;2024-02-26T20:34:03;3.2999999999999994;;;2.7;;
15557;SDS011;7880;50.110;9.372;2024-02-26T20:39:10;3.130769230769232;;;2.530769230769231;;
15557;SDS011;7880;50.110;9.372;2024-02-26T20:44:25;3.899999999999999;;;3.06923076923077;;
15557;SDS011;7880;50.110;9.372;2024-02-26T20:49:24;6.730769230769233;;;3.5692307692307703;;
15557;SDS011;7880;50.110;9.372;2024-02-26T20:54:28;5.1000000000000005;;;3.7307692307692295;;
15557;SDS011;7880;50.110;9.372;2024-02-26T20:59:36;5.238461538461538;;;3.5;;
15557;SDS011;7880;50.110;9.372;2024-02-26T21:04:43;5.769230769230769;;;3.7999999999999994;;
15557;SDS011;7880;50.110;9.372;2024-02-26T21:09:52;9.038461538461538;;;5.299999999999999;;
15557;SDS011;7880;50.110;9.372;2024-02-26T21:15:00;6.599999999999999;;;4.0;;
15557;SDS011;7880;50.110;9.372;2024-02-26T21:20:04;6.43076923076923;;;4.299999999999999;;
15557;SDS011;7880;50.110;9.372;2024-02-26T21:25:09;8.169230769230769;;;4.769230769230769;;
15557;SDS011;7880;50.110;9.372;2024-02-26T21:30:16;11.5;;;5.700000000000002;;
15557;SDS011;7880;50.110;9.372;2024-02-26T21:35:25;9.36153846153846;;;5.5;;
15557;SDS011;7880;50.110;9.372;2024-02-26T21:40:35;9.307692307692308;;;5.6;;
15557;SDS011;7880;50.110;9.372;2024-02-26T21:45:37;9.630769230769229;;;6.330769230769231;;
15557;SDS011;7880;50.110;9.372;2024-02-26T21:50:46;11.22307692307692;;;6.176923076923079;;
15557;SDS011;7880;50.110;9.372;2024-02-26T21:55:48;12.66923076923077;;;7.830769230769231;;
15557;SDS011;7880;50.110;9.372;2024-02-26T22:00:54;19.30769230769231;;;10.200000000000001;;
15557;SDS011;7880;50.110;9.372;2024-02-26T22:05:59;12.923076923076918;;;7.992307692307692;;
15557;SDS011;7880;50.110;9.372;2024-02-26T22:11:07;18.430769230769233;;;10.13076923076923;;
15557;SDS011;7880;50.110;9.372;2024-02-26T22:16:12;14.238461538461536;;;9.299999999999999;;
15557;SDS011;7880;50.110;9.372;2024-02-26T22:21:18;16.415384615384617;;;10.33076923076923;;
15557;SDS011;7880;50.110;9.372;2024-02-26T22:26:29;13.630769230769225;;;9.730769230769234;;
15557;SDS011;7880;50.110;9.372;2024-02-26T22:31:33;19.176923076923078;;;11.569230769230767;;
15557;SDS011;7880;50.110;9.372;2024-02-26T22:36:44;14.161538461538463;;;9.5;;
15557;SDS011;7880;50.110;9.372;2024-02-26T22:41:48;17.96923076923077;;;11.161538461538461;;
15557;SDS011;7880;50.110;9.372;2024-02-26T22:46:14;17.900000000000002;;;12.130769230769225;;
15557;SDS011;7880;50.110;9.372;2024-02-26T22:51:21;17.830769230769235;;;11.761538461538464;;
15557;SDS011;7880;50.110;9.372;2024-02-26T22:56:32;19.207692307692305;;;11.400000000000004;;